Time;durP1;ratioP1;P1;durP2;ratioP2;P2;SDS_P1;SDS_P2;PMS_P1;PMS_P2;Temp;Humidity;BMP_temperature;BMP_pressure;BME280_temperature;BME280_humidity;BME280_pressure;Samples;Min_cycle;Max_cycle;Signal;HPM_P1;HPM_P2
2021/08/15 00:01:45;;;;;;;8.07;2.60;;;;;;;;;;5029099;28;38859;-80
2021/08/15 00:04:12;;;;;;;5.95;2.65;;;;;;;;;;5029383;28;39117;-80
2021/08/15 00:06:38;;;;;;;7.07;2.65;;;;;;;;;;5020907;28;37014;-79
2021/08/15 00:09:05;;;;;;;4.85;2.45;;;;;;;;;;5028480;28;38766;-79
2021/08/15 00:11:33;;;;;;;4.95;2.70;;;;;;;;;;5025535;28;37751;-80
2021/08/15 00:13:59;;;;;;;3.92;2.42;;;;;;;;;;5034090;28;38429;-79
2021/08/15 00:16:26;;;;;;;5.05;2.47;;;;;;;;;;5029014;28;37520;-80
2021/08/15 00:18:52;;;;;;;5.15;2.47;;;;;;;;;;5033540;28;38545;-80
2021/08/15 00:21:19;;;;;;;6.03;2.70;;;;;;;;;;5025224;28;38047;-79
2021/08/15 00:23:45;;;;;;;4.82;2.58;;;;;;;;;;5016028;28;40311;-80
2021/08/15 00:26:12;;;;;;;6.70;2.53;;;;;;;;;;5033716;28;37843;-80
2021/08/15 00:28:38;;;;;;;6.13;2.70;;;;;;;;;;5030074;28;39541;-80
2021/08/15 00:31:04;;;;;;;5.47;2.47;;;;;;;;;;5032524;28;38898;-80
2021/08/15 00:33:31;;;;;;;6.15;2.85;;;;;;;;;;5029242;28;36503;-79
2021/08/15 00:35:57;;;;;;;6.70;3.50;;;;;;;;;;5031646;28;37525;-80
2021/08/15 00:38:23;;;;;;;5.78;2.60;;;;;;;;;;5025002;28;39623;-80
2021/08/15 00:40:50;;;;;;;4.63;3.03;;;;;;;;;;5028933;28;39623;-79
2021/08/15 00:43:16;;;;;;;5.38;3.10;;;;;;;;;;5035040;28;39858;-80
2021/08/15 00:45:43;;;;;;;5.60;2.90;;;;;;;;;;5030852;28;36214;-80
2021/08/15 00:48:10;;;;;;;6.53;3.22;;;;;;;;;;5033076;28;39812;-79
2021/08/15 00:50:37;;;;;;;8.82;3.35;;;;;;;;;;5031415;28;39214;-80
2021/08/15 00:53:05;;;;;;;6.13;3.10;;;;;;;;;;5032270;28;39481;-80
2021/08/15 00:55:33;;;;;;;4.60;2.55;;;;;;;;;;5030268;28;36704;-80
2021/08/15 00:57:59;;;;;;;5.47;3.58;;;;;;;;;;5019002;28;39977;-80
2021/08/15 01:00:25;;;;;;;5.63;3.30;;;;;;;;;;5022162;28;37577;-80
2021/08/15 01:02:52;;;;;;;8.77;3.72;;;;;;;;;;5039087;28;39209;-80
2021/08/15 01:05:18;;;;;;;8.68;3.75;;;;;;;;;;5037918;28;37356;-80
2021/08/15 01:07:45;;;;;;;6.30;3.60;;;;;;;;;;5036006;28;39558;-80
2021/08/15 01:10:12;;;;;;;7.30;3.53;;;;;;;;;;5033004;28;39967;-80
2021/08/15 01:12:39;;;;;;;7.55;3.80;;;;;;;;;;5040488;28;39081;-80
2021/08/15 01:15:06;;;;;;;9.65;4.40;;;;;;;;;;5017486;28;35606;-79
2021/08/15 01:17:32;;;;;;;9.00;4.60;;;;;;;;;;5040013;28;38983;-80
2021/08/15 01:19:59;;;;;;;6.63;4.22;;;;;;;;;;5039658;28;38815;-80
2021/08/15 01:22:26;;;;;;;6.95;4.22;;;;;;;;;;5038137;28;38797;-78
2021/08/15 01:24:53;;;;;;;9.45;5.00;;;;;;;;;;5042339;28;37121;-78
2021/08/15 01:27:20;;;;;;;9.23;4.88;;;;;;;;;;5039017;28;39991;-78
2021/08/15 01:29:47;;;;;;;10.75;6.38;;;;;;;;;;5045401;28;38811;-78
2021/08/15 01:32:21;;;;;;;10.77;5.22;;;;;;;;;;5038540;28;39015;-78
2021/08/15 01:34:48;;;;;;;14.32;5.88;;;;;;;;;;5035335;28;35410;-77
2021/08/15 01:37:14;;;;;;;10.93;4.68;;;;;;;;;;5039220;28;39906;-78
2021/08/15 01:39:41;;;;;;;8.65;5.13;;;;;;;;;;5040623;28;39048;-78
2021/08/15 01:42:07;;;;;;;6.30;4.65;;;;;;;;;;5044391;28;38826;-78
2021/08/15 01:44:34;;;;;;;8.18;5.30;;;;;;;;;;5046672;28;37446;-78
2021/08/15 01:47:00;;;;;;;5.88;4.53;;;;;;;;;;5037434;28;38619;-79
2021/08/15 01:49:26;;;;;;;12.40;5.63;;;;;;;;;;5027329;28;37616;-79
2021/08/15 01:51:53;;;;;;;9.77;4.93;;;;;;;;;;5037934;28;38830;-79
2021/08/15 01:54:19;;;;;;;9.98;5.75;;;;;;;;;;5042255;28;36957;-79
2021/08/15 01:56:46;;;;;;;8.75;4.90;;;;;;;;;;5036169;28;39025;-78
2021/08/15 01:59:12;;;;;;;9.23;5.13;;;;;;;;;;5031781;28;39159;-78
2021/08/15 02:01:39;;;;;;;9.23;5.45;;;;;;;;;;5029759;28;39380;-78
2021/08/15 02:04:05;;;;;;;6.75;5.15;;;;;;;;;;5025270;28;37183;-78
2021/08/15 02:06:31;;;;;;;8.65;5.65;;;;;;;;;;5028412;28;38676;-78
2021/08/15 02:08:58;;;;;;;8.55;4.53;;;;;;;;;;5024836;28;39197;-79
2021/08/15 02:11:25;;;;;;;10.00;5.22;;;;;;;;;;5029498;28;38805;-78
2021/08/15 02:13:51;;;;;;;9.18;5.18;;;;;;;;;;5036345;28;37657;-79
2021/08/15 02:16:19;;;;;;;8.70;6.18;;;;;;;;;;5018600;28;39056;-78
2021/08/15 02:18:45;;;;;;;7.80;5.00;;;;;;;;;;5033817;28;38639;-78
2021/08/15 02:21:11;;;;;;;9.07;5.60;;;;;;;;;;5009614;28;38959;-78
2021/08/15 02:23:38;;;;;;;8.65;5.88;;;;;;;;;;5035960;28;35475;-79
2021/08/15 02:26:04;;;;;;;9.23;4.50;;;;;;;;;;5028601;28;39596;-79
2021/08/15 02:28:31;;;;;;;7.88;4.95;;;;;;;;;;5018387;28;39693;-79
2021/08/15 02:30:58;;;;;;;7.00;4.97;;;;;;;;;;5023787;28;40333;-79
2021/08/15 02:33:24;;;;;;;8.95;4.88;;;;;;;;;;5029829;28;36733;-78
2021/08/15 02:35:53;;;;;;;6.78;4.38;;;;;;;;;;5026264;28;39093;-78
2021/08/15 02:38:21;;;;;;;9.38;4.55;;;;;;;;;;5031760;28;39329;-78
2021/08/15 02:40:47;;;;;;;6.65;4.35;;;;;;;;;;5030520;28;38524;-78
2021/08/15 02:43:13;;;;;;;6.18;4.45;;;;;;;;;;5030684;28;36796;-78
2021/08/15 02:45:40;;;;;;;8.77;4.18;;;;;;;;;;5030098;28;39213;-78
2021/08/15 02:48:06;;;;;;;9.85;4.60;;;;;;;;;;5031424;28;38938;-79
2021/08/15 02:50:33;;;;;;;5.40;4.35;;;;;;;;;;5025081;28;38746;-79
2021/08/15 02:52:59;;;;;;;6.88;4.15;;;;;;;;;;5026839;28;36820;-77
2021/08/15 02:55:25;;;;;;;7.03;3.88;;;;;;;;;;5032503;28;39747;-79
2021/08/15 02:57:52;;;;;;;7.25;4.35;;;;;;;;;;5037409;28;39351;-78
2021/08/15 03:00:18;;;;;;;7.07;4.57;;;;;;;;;;5023459;28;37842;-79
2021/08/15 03:02:44;;;;;;;9.43;4.53;;;;;;;;;;5019567;28;35976;-78
2021/08/15 03:05:11;;;;;;;8.77;4.30;;;;;;;;;;5011632;28;38094;-79
2021/08/15 03:07:38;;;;;;;7.53;4.00;;;;;;;;;;5035612;28;39161;-79
2021/08/15 03:10:05;;;;;;;6.47;4.38;;;;;;;;;;5023997;28;40529;-79
2021/08/15 03:12:31;;;;;;;9.00;5.50;;;;;;;;;;5033578;28;48452;-78
2021/08/15 03:14:57;;;;;;;8.90;4.63;;;;;;;;;;5026804;28;39626;-79
2021/08/15 03:17:24;;;;;;;9.65;5.47;;;;;;;;;;5023782;28;39050;-79
2021/08/15 03:19:50;;;;;;;9.55;5.43;;;;;;;;;;5030742;28;38046;-79
2021/08/15 03:22:17;;;;;;;9.40;5.25;;;;;;;;;;5028152;28;37945;-78
2021/08/15 03:24:43;;;;;;;7.82;4.93;;;;;;;;;;5026849;28;38992;-79
2021/08/15 03:27:09;;;;;;;9.20;4.38;;;;;;;;;;5010907;28;39087;-78
2021/08/15 03:29:36;;;;;;;12.52;6.07;;;;;;;;;;5020994;28;39706;-79
2021/08/15 03:32:02;;;;;;;10.80;5.43;;;;;;;;;;5029736;28;36536;-78
2021/08/15 03:34:29;;;;;;;12.82;5.95;;;;;;;;;;5029751;28;38149;-79
2021/08/15 03:36:55;;;;;;;11.23;5.53;;;;;;;;;;5011731;28;39162;-79
2021/08/15 03:39:22;;;;;;;8.32;5.57;;;;;;;;;;5028282;28;39238;-79
2021/08/15 03:41:49;;;;;;;11.32;5.38;;;;;;;;;;5029922;28;36097;-79
2021/08/15 03:44:15;;;;;;;13.55;5.90;;;;;;;;;;5020513;28;37720;-79
2021/08/15 03:46:42;;;;;;;11.57;5.60;;;;;;;;;;5037116;28;38762;-78
2021/08/15 03:49:08;;;;;;;11.00;5.65;;;;;;;;;;5036564;28;37425;-78
2021/08/15 03:51:35;;;;;;;9.13;5.97;;;;;;;;;;5022712;28;36712;-78
2021/08/15 03:54:01;;;;;;;12.80;6.13;;;;;;;;;;5038888;28;38778;-78
2021/08/15 03:56:29;;;;;;;11.52;5.85;;;;;;;;;;5034952;28;47154;-79
2021/08/15 03:58:55;;;;;;;15.55;6.75;;;;;;;;;;5034890;28;38459;-79
2021/08/15 04:01:21;;;;;;;13.55;6.88;;;;;;;;;;5034286;28;37015;-79
2021/08/15 04:03:47;;;;;;;13.93;6.55;;;;;;;;;;5033592;28;37797;-79
2021/08/15 04:06:21;;;;;;;11.23;6.93;;;;;;;;;;5038295;28;38979;-79
2021/08/15 04:08:47;;;;;;;13.55;7.07;;;;;;;;;;5026545;28;37355;-78
2021/08/15 04:11:14;;;;;;;17.92;7.03;;;;;;;;;;5033373;28;36165;-78
2021/08/15 04:13:40;;;;;;;11.93;6.85;;;;;;;;;;5037149;28;40429;-79
2021/08/15 04:16:07;;;;;;;9.65;5.88;;;;;;;;;;5033779;28;39140;-78
2021/08/15 04:18:33;;;;;;;12.18;6.25;;;;;;;;;;5031203;28;37428;-79
2021/08/15 04:20:59;;;;;;;12.63;6.88;;;;;;;;;;5025828;28;37470;-79
2021/08/15 04:23:26;;;;;;;11.68;6.05;;;;;;;;;;5031516;28;38723;-79
2021/08/15 04:25:53;;;;;;;13.05;6.78;;;;;;;;;;5031254;28;40416;-79
2021/08/15 04:28:21;;;;;;;15.68;7.90;;;;;;;;;;5029457;28;37828;-79
2021/08/15 04:30:47;;;;;;;15.98;7.20;;;;;;;;;;5028213;28;36938;-79
2021/08/15 04:33:18;;;;;;;12.82;7.18;;;;;;;;;;5031967;28;37997;-79
2021/08/15 04:35:44;;;;;;;14.93;7.28;;;;;;;;;;5030515;28;40137;-79
2021/08/15 04:38:10;;;;;;;12.80;6.97;;;;;;;;;;5015879;28;38787;-78
2021/08/15 04:40:37;;;;;;;14.52;7.47;;;;;;;;;;5013942;28;38628;-79
2021/08/15 04:43:03;;;;;;;14.05;7.18;;;;;;;;;;5030534;28;39571;-79
2021/08/15 04:45:30;;;;;;;11.80;6.63;;;;;;;;;;5032237;28;41373;-80
2021/08/15 04:47:56;;;;;;;13.98;7.55;;;;;;;;;;5035049;28;38703;-78
2021/08/15 04:50:22;;;;;;;16.70;7.50;;;;;;;;;;5036101;28;39425;-79
2021/08/15 04:52:49;;;;;;;15.02;7.60;;;;;;;;;;5016767;28;37878;-79
2021/08/15 04:55:18;;;;;;;13.43;7.25;;;;;;;;;;5014071;28;40338;-79
2021/08/15 04:57:44;;;;;;;13.68;7.13;;;;;;;;;;5033224;28;38691;-79
2021/08/15 05:00:11;;;;;;;13.73;6.90;;;;;;;;;;5031117;28;37630;-79
2021/08/15 05:02:38;;;;;;;13.15;6.60;;;;;;;;;;5037662;28;40652;-79
2021/08/15 05:05:04;;;;;;;16.27;7.90;;;;;;;;;;5022873;28;37620;-79
2021/08/15 05:07:30;;;;;;;11.88;7.03;;;;;;;;;;5028786;28;46856;-79
2021/08/15 05:09:57;;;;;;;15.68;7.47;;;;;;;;;;5037395;28;37121;-80
2021/08/15 05:12:23;;;;;;;12.85;7.55;;;;;;;;;;5014838;28;39343;-79
2021/08/15 05:14:50;;;;;;;15.05;7.68;;;;;;;;;;5022081;28;39148;-79
2021/08/15 05:17:19;;;;;;;13.65;7.60;;;;;;;;;;5028907;28;38375;-79
2021/08/15 05:19:45;;;;;;;13.43;6.90;;;;;;;;;;5031611;28;36894;-79
2021/08/15 05:22:11;;;;;;;12.50;7.20;;;;;;;;;;5029150;28;39424;-79
2021/08/15 05:24:38;;;;;;;11.65;7.10;;;;;;;;;;5036928;28;38878;-79
2021/08/15 05:27:05;;;;;;;13.15;7.18;;;;;;;;;;5032317;28;40540;-79
2021/08/15 05:29:31;;;;;;;14.85;7.20;;;;;;;;;;5016369;28;36796;-79
2021/08/15 05:31:57;;;;;;;12.88;6.85;;;;;;;;;;5029745;28;40237;-79
2021/08/15 05:34:24;;;;;;;13.30;7.18;;;;;;;;;;5031731;28;39919;-79
2021/08/15 05:36:50;;;;;;;16.80;6.75;;;;;;;;;;5031138;28;38238;-78
2021/08/15 05:39:16;;;;;;;13.05;6.18;;;;;;;;;;5033207;28;37039;-78
2021/08/15 05:41:43;;;;;;;12.00;6.60;;;;;;;;;;5031184;28;38963;-79
2021/08/15 05:44:09;;;;;;;11.52;5.97;;;;;;;;;;5027812;28;38764;-79
2021/08/15 05:46:36;;;;;;;15.98;6.93;;;;;;;;;;5031153;28;40052;-79
2021/08/15 05:49:02;;;;;;;11.63;5.90;;;;;;;;;;5030387;28;35784;-79
2021/08/15 05:51:28;;;;;;;13.88;6.65;;;;;;;;;;5024380;28;38141;-79
2021/08/15 05:53:55;;;;;;;12.18;6.75;;;;;;;;;;5025747;28;38775;-79
2021/08/15 05:56:21;;;;;;;11.63;6.90;;;;;;;;;;5028107;28;38868;-79
2021/08/15 05:58:47;;;;;;;10.05;6.25;;;;;;;;;;5027804;28;35491;-79
2021/08/15 06:01:14;;;;;;;11.80;6.75;;;;;;;;;;5027426;28;37479;-79
2021/08/15 06:03:40;;;;;;;12.30;6.60;;;;;;;;;;5027094;28;37421;-79
2021/08/15 06:06:06;;;;;;;15.13;6.90;;;;;;;;;;5018921;28;37453;-79
2021/08/15 06:08:33;;;;;;;10.60;5.72;;;;;;;;;;5028994;28;37008;-79
2021/08/15 06:10:59;;;;;;;13.02;6.97;;;;;;;;;;5026833;28;39251;-79
2021/08/15 06:13:25;;;;;;;12.35;6.20;;;;;;;;;;5025027;28;38985;-79
2021/08/15 06:15:52;;;;;;;13.85;7.43;;;;;;;;;;5011688;28;37951;-78
2021/08/15 06:18:18;;;;;;;14.70;7.47;;;;;;;;;;5021665;28;37703;-79
2021/08/15 06:20:45;;;;;;;18.42;7.05;;;;;;;;;;5023789;28;37603;-79
2021/08/15 06:23:11;;;;;;;17.15;7.07;;;;;;;;;;5026182;28;39132;-78
2021/08/15 06:25:38;;;;;;;11.75;6.25;;;;;;;;;;5025248;28;39410;-80
2021/08/15 06:28:04;;;;;;;16.17;7.18;;;;;;;;;;5029847;28;36946;-79
2021/08/15 06:30:30;;;;;;;14.68;6.95;;;;;;;;;;5029444;28;39543;-79
2021/08/15 06:32:57;;;;;;;13.55;6.65;;;;;;;;;;5016287;28;40328;-80
2021/08/15 06:35:25;;;;;;;22.23;7.35;;;;;;;;;;5029902;28;39261;-79
2021/08/15 06:37:52;;;;;;;15.75;6.65;;;;;;;;;;5016293;28;35914;-80
2021/08/15 06:40:21;;;;;;;17.73;7.05;;;;;;;;;;5025347;28;37697;-81
2021/08/15 06:42:47;;;;;;;14.75;7.55;;;;;;;;;;5033400;28;39820;-80
2021/08/15 06:45:14;;;;;;;13.90;7.22;;;;;;;;;;5027201;28;37903;-79
2021/08/15 06:47:40;;;;;;;19.10;7.28;;;;;;;;;;5029558;28;37979;-80
2021/08/15 06:50:07;;;;;;;14.63;7.30;;;;;;;;;;5030029;28;37536;-80
2021/08/15 06:52:34;;;;;;;12.25;6.43;;;;;;;;;;5032657;28;39541;-80
2021/08/15 06:55:00;;;;;;;17.70;7.00;;;;;;;;;;5033512;28;39079;-80
2021/08/15 06:57:27;;;;;;;14.32;7.30;;;;;;;;;;5032543;28;35641;-80
2021/08/15 06:59:54;;;;;;;17.92;7.30;;;;;;;;;;5028198;28;37535;-80
2021/08/15 07:02:20;;;;;;;18.70;7.38;;;;;;;;;;5032076;28;39448;-80
2021/08/15 07:04:46;;;;;;;16.52;7.07;;;;;;;;;;5031209;28;39898;-80
2021/08/15 07:07:13;;;;;;;12.65;6.47;;;;;;;;;;5032649;28;35745;-80
2021/08/15 07:09:39;;;;;;;19.75;7.15;;;;;;;;;;5023711;28;39322;-80
2021/08/15 07:12:06;;;;;;;12.20;6.40;;;;;;;;;;5034756;28;39412;-80
2021/08/15 07:14:32;;;;;;;21.00;6.70;;;;;;;;;;5039782;28;39290;-80
2021/08/15 07:16:58;;;;;;;13.52;6.22;;;;;;;;;;5035660;28;37942;-80
2021/08/15 07:19:25;;;;;;;15.68;6.35;;;;;;;;;;5039833;28;39244;-80
2021/08/15 07:21:52;;;;;;;15.18;6.55;;;;;;;;;;5033198;28;40781;-80
2021/08/15 07:24:18;;;;;;;18.38;6.78;;;;;;;;;;5034372;28;37202;-80
2021/08/15 07:26:45;;;;;;;15.35;6.53;;;;;;;;;;5026434;28;36776;-80
2021/08/15 07:29:11;;;;;;;15.20;6.07;;;;;;;;;;5039119;28;38805;-80
2021/08/15 07:31:38;;;;;;;12.88;5.93;;;;;;;;;;5032910;28;39672;-78
2021/08/15 07:34:04;;;;;;;15.93;8.18;;;;;;;;;;5036000;28;38302;-79
2021/08/15 07:36:30;;;;;;;14.77;6.28;;;;;;;;;;5031488;28;38306;-79
2021/08/15 07:38:57;;;;;;;11.73;5.15;;;;;;;;;;5029545;28;37596;-78
2021/08/15 07:41:23;;;;;;;13.85;6.43;;;;;;;;;;5033804;28;39449;-79
2021/08/15 07:43:49;;;;;;;19.33;6.95;;;;;;;;;;5035197;28;38136;-79
2021/08/15 07:46:18;;;;;;;13.75;6.00;;;;;;;;;;5038722;28;36911;-79
2021/08/15 07:48:45;;;;;;;14.02;5.82;;;;;;;;;;5029360;28;40092;-79
2021/08/15 07:51:11;;;;;;;13.70;5.90;;;;;;;;;;5021276;28;39495;-79
2021/08/15 07:53:39;;;;;;;13.95;5.43;;;;;;;;;;5044701;28;20223;-79
2021/08/15 07:56:06;;;;;;;11.95;5.75;;;;;;;;;;5046987;28;38344;-78
2021/08/15 07:58:33;;;;;;;12.98;5.22;;;;;;;;;;5027636;28;36212;-79
2021/08/15 08:00:59;;;;;;;13.75;5.60;;;;;;;;;;5041090;28;39356;-78
2021/08/15 08:03:26;;;;;;;10.57;5.28;;;;;;;;;;5024080;28;39459;-78
2021/08/15 08:05:52;;;;;;;10.10;5.72;;;;;;;;;;5033264;28;35097;-78
2021/08/15 08:08:19;;;;;;;12.43;5.25;;;;;;;;;;5033823;28;40620;-79
2021/08/15 08:10:47;;;;;;;15.73;6.15;;;;;;;;;;5036325;28;39538;-79
2021/08/15 08:13:13;;;;;;;10.23;5.32;;;;;;;;;;5042803;28;39018;-79
2021/08/15 08:15:41;;;;;;;16.60;5.68;;;;;;;;;;5031850;28;35840;-79
2021/08/15 08:18:08;;;;;;;14.73;5.88;;;;;;;;;;5035954;28;39030;-78
2021/08/15 08:20:37;;;;;;;11.10;4.95;;;;;;;;;;5041983;28;38614;-78
2021/08/15 08:23:08;;;;;;;7.40;4.72;;;;;;;;;;5032078;28;38853;-78
2021/08/15 08:25:35;;;;;;;12.85;5.32;;;;;;;;;;5025018;28;37747;-79
2021/08/15 08:28:01;;;;;;;11.70;5.80;;;;;;;;;;5038973;28;39509;-77
2021/08/15 08:30:28;;;;;;;15.68;5.13;;;;;;;;;;5034893;28;49075;-78
2021/08/15 08:32:54;;;;;;;10.88;5.60;;;;;;;;;;5033893;28;37433;-77
2021/08/15 08:35:21;;;;;;;12.20;4.85;;;;;;;;;;5020897;28;38097;-78
2021/08/15 08:37:48;;;;;;;11.48;5.57;;;;;;;;;;5042018;28;39061;-77
2021/08/15 08:40:15;;;;;;;12.23;5.50;;;;;;;;;;5035007;28;39017;-78
2021/08/15 08:42:42;;;;;;;11.63;5.57;;;;;;;;;;5037968;28;40723;-77
2021/08/15 08:45:10;;;;;;;9.40;5.78;;;;;;;;;;5037712;28;37251;-78
2021/08/15 08:47:36;;;;;;;8.85;5.13;;;;;;;;;;5166613;22;39494;-76
2021/08/15 08:50:02;;;;;;;17.27;6.22;;;;;;;;;;5048865;28;37897;-78
2021/08/15 08:52:30;;;;;;;12.68;5.68;;;;;;;;;;5053554;28;39039;-77
2021/08/15 08:55:00;;;;;;;11.27;4.75;;;;;;;;;;5025780;28;36323;-76
2021/08/15 08:57:27;;;;;;;12.65;5.78;;;;;;;;;;5047346;28;37521;-77
2021/08/15 08:59:53;;;;;;;12.13;5.35;;;;;;;;;;5027468;28;39789;-76
2021/08/15 09:02:20;;;;;;;8.60;4.60;;;;;;;;;;5035739;28;39991;-76
2021/08/15 09:04:46;;;;;;;11.85;4.60;;;;;;;;;;5042203;28;37319;-77
2021/08/15 09:07:14;;;;;;;13.40;4.25;;;;;;;;;;5034654;28;39020;-76
2021/08/15 09:09:50;;;;;;;10.88;4.72;;;;;;;;;;5032244;28;39453;-76
2021/08/15 09:12:16;;;;;;;8.57;4.53;;;;;;;;;;5049208;28;38089;-77
2021/08/15 09:14:43;;;;;;;9.15;3.97;;;;;;;;;;5033928;28;37418;-76
2021/08/15 09:17:09;;;;;;;7.70;3.95;;;;;;;;;;5049094;28;37991;-76
2021/08/15 09:41:02;;;;;;;6.05;2.85;;;;;;;;;;5545778;22;20052;-80
2021/08/15 09:49:03;;;;;;;6.47;2.60;;;;;;;;;;5130765;22;20722;-80
2021/08/15 10:45:24;;;;;;;5.45;2.42;;;;;;;;;;5823373;22;21503;-79
2021/08/15 11:01:09;;;;;;;7.18;3.42;;;;;;;;;;5167632;22;20267;-79
2021/08/15 11:03:50;;;;;;;7.95;3.20;;;;;;;;;;5167655;23;38777;-79
2021/08/15 11:06:38;;;;;;;4.93;2.80;;;;;;;;;;5356292;23;38160;-79
2021/08/15 11:09:21;;;;;;;8.00;2.80;;;;;;;;;;5283896;22;39422;-79
2021/08/15 11:12:05;;;;;;;3.90;2.28;;;;;;;;;;5051761;28;35841;-79
2021/08/15 11:14:31;;;;;;;6.33;2.80;;;;;;;;;;5682732;22;47666;-77
2021/08/15 11:19:48;;;;;;;4.60;2.78;;;;;;;;;;5931978;23;20042;-80
2021/08/15 11:35:11;;;;;;;6.97;3.05;;;;;;;;;;5383073;22;20054;-78
2021/08/15 11:37:39;;;;;;;10.63;3.15;;;;;;;;;;5056324;28;40307;-80
2021/08/15 11:40:31;;;;;;;6.82;3.08;;;;;;;;;;5069277;28;39053;-78
2021/08/15 11:42:59;;;;;;;6.65;3.40;;;;;;;;;;5088140;23;47977;-80
2021/08/15 11:45:57;;;;;;;6.85;2.88;;;;;;;;;;5769198;22;37659;-81
2021/08/15 11:57:52;;;;;;;6.32;2.80;;;;;;;;;;5044094;28;20045;-79
2021/08/15 12:35:10;;;;;;;8.40;3.00;;;;;;;;;;5860669;23;20137;-79
2021/08/15 12:48:33;;;;;;;7.00;2.90;;;;;;;;;;5449750;23;20031;-80
2021/08/15 13:01:24;;;;;;;5.53;2.80;;;;;;;;;;5083756;23;20050;-80
2021/08/15 13:03:50;;;;;;;6.35;3.28;;;;;;;;;;5017636;28;37384;-80
2021/08/15 13:06:24;;;;;;;6.63;3.28;;;;;;;;;;5034352;28;37530;-81
2021/08/15 13:08:51;;;;;;;5.85;3.60;;;;;;;;;;5036500;28;38123;-80
2021/08/15 13:11:17;;;;;;;6.95;3.67;;;;;;;;;;5005187;28;40304;-81
2021/08/15 13:13:43;;;;;;;7.45;3.10;;;;;;;;;;5027523;28;37429;-79
2021/08/15 13:16:10;;;;;;;6.75;3.38;;;;;;;;;;5008988;28;38390;-79
2021/08/15 13:18:36;;;;;;;10.55;3.85;;;;;;;;;;5025648;28;40442;-80
2021/08/15 13:21:02;;;;;;;9.13;4.20;;;;;;;;;;5005210;28;38648;-77
2021/08/15 13:23:29;;;;;;;9.68;3.88;;;;;;;;;;5020371;28;37565;-78
2021/08/15 13:25:57;;;;;;;7.80;3.75;;;;;;;;;;5044625;28;39719;-78
2021/08/15 13:28:24;;;;;;;8.13;3.88;;;;;;;;;;5045210;28;38508;-78
2021/08/15 13:30:50;;;;;;;10.50;3.97;;;;;;;;;;5055327;28;39020;-79
2021/08/15 13:33:18;;;;;;;9.45;3.83;;;;;;;;;;5051982;28;38576;-79
2021/08/15 13:35:46;;;;;;;7.75;3.53;;;;;;;;;;5041691;28;37939;-79
2021/08/15 13:38:19;;;;;;;5.03;3.38;;;;;;;;;;5066158;28;40279;-79
2021/08/15 13:40:46;;;;;;;7.30;3.55;;;;;;;;;;5060233;28;39110;-80
2021/08/15 13:43:12;;;;;;;7.28;3.90;;;;;;;;;;5046675;28;35519;-79
2021/08/15 13:45:39;;;;;;;9.00;3.95;;;;;;;;;;5068981;28;37979;-79
2021/08/15 13:48:05;;;;;;;6.00;3.28;;;;;;;;;;5064319;28;37937;-79
2021/08/15 13:50:32;;;;;;;6.70;3.25;;;;;;;;;;5060965;28;37531;-80
2021/08/15 13:52:59;;;;;;;8.23;3.80;;;;;;;;;;5056265;28;38409;-80
2021/08/15 13:55:27;;;;;;;6.65;3.20;;;;;;;;;;5063953;28;39115;-80
2021/08/15 13:57:55;;;;;;;5.72;3.10;;;;;;;;;;5067964;28;37825;-80
2021/08/15 14:05:54;;;;;;;6.40;3.58;;;;;;;;;;5744062;22;20035;-81
2021/08/15 14:08:24;;;;;;;6.00;3.83;;;;;;;;;;5042978;28;38552;-81
2021/08/15 14:16:09;;;;;;;7.43;3.70;;;;;;;;;;5438693;22;19909;-81
2021/08/15 14:26:27;;;;;;;8.90;4.15;;;;;;;;;;5407789;23;20036;-80
2021/08/15 14:28:56;;;;;;;10.57;4.70;;;;;;;;;;5090285;28;40408;-80
2021/08/15 14:31:23;;;;;;;10.02;4.93;;;;;;;;;;5095299;28;40561;-81
2021/08/15 14:33:53;;;;;;;10.57;4.45;;;;;;;;;;5086550;28;37300;-80
2021/08/15 14:36:41;;;;;;;7.38;4.40;;;;;;;;;;5082787;28;40975;-80
2021/08/15 14:39:07;;;;;;;9.13;4.55;;;;;;;;;;5079308;28;37993;-79
2021/08/15 14:41:33;;;;;;;8.93;4.68;;;;;;;;;;5089107;28;39127;-79
2021/08/15 14:44:00;;;;;;;11.90;5.55;;;;;;;;;;5086693;28;37132;-79
2021/08/15 14:46:26;;;;;;;10.75;5.28;;;;;;;;;;5083623;28;37558;-78
2021/08/15 14:48:53;;;;;;;9.68;4.82;;;;;;;;;;5090573;28;40393;-78
2021/08/15 14:51:19;;;;;;;13.32;5.30;;;;;;;;;;5073906;28;38854;-80
2021/08/15 14:53:45;;;;;;;10.73;4.85;;;;;;;;;;5083363;28;38177;-78
2021/08/15 14:56:12;;;;;;;11.63;4.95;;;;;;;;;;5071534;28;40807;-79
2021/08/15 14:58:40;;;;;;;9.98;4.65;;;;;;;;;;5075210;28;39140;-80
2021/08/15 15:01:07;;;;;;;7.97;4.28;;;;;;;;;;5068601;28;37343;-79
2021/08/15 15:03:33;;;;;;;9.18;4.03;;;;;;;;;;5086115;28;36020;-79
2021/08/15 15:06:00;;;;;;;7.20;3.88;;;;;;;;;;5087289;28;39081;-80
2021/08/15 15:08:26;;;;;;;9.27;4.05;;;;;;;;;;5081589;28;40196;-80
2021/08/15 15:10:52;;;;;;;8.32;4.22;;;;;;;;;;5083514;28;38975;-80
2021/08/15 15:13:19;;;;;;;9.50;4.32;;;;;;;;;;5081386;28;37517;-79
2021/08/15 15:15:45;;;;;;;7.88;3.80;;;;;;;;;;5072553;28;38648;-79
2021/08/15 15:18:12;;;;;;;6.85;3.50;;;;;;;;;;5089729;28;40296;-80
2021/08/15 15:20:38;;;;;;;7.55;3.38;;;;;;;;;;5087338;28;40499;-80
2021/08/15 15:23:05;;;;;;;6.63;3.25;;;;;;;;;;5096554;28;37274;-79
2021/08/15 15:25:31;;;;;;;5.43;3.35;;;;;;;;;;5074096;28;38905;-79
2021/08/15 15:27:58;;;;;;;8.68;3.72;;;;;;;;;;5077657;28;38804;-78
2021/08/15 15:30:24;;;;;;;5.65;3.15;;;;;;;;;;5091627;28;38952;-79
2021/08/15 15:32:50;;;;;;;5.72;3.70;;;;;;;;;;5099479;28;35614;-78
2021/08/15 15:35:17;;;;;;;6.72;3.00;;;;;;;;;;5077375;28;38955;-79
2021/08/15 15:37:43;;;;;;;9.85;3.40;;;;;;;;;;5100232;28;37769;-80
2021/08/15 15:40:10;;;;;;;5.90;2.97;;;;;;;;;;5076846;28;39599;-78
2021/08/15 15:42:36;;;;;;;6.15;3.45;;;;;;;;;;5077658;28;37712;-79
2021/08/15 15:45:03;;;;;;;5.65;3.17;;;;;;;;;;5080124;28;40967;-79
2021/08/15 15:47:29;;;;;;;7.90;3.03;;;;;;;;;;5082236;28;47156;-79
2021/08/15 15:49:56;;;;;;;5.78;3.28;;;;;;;;;;5075510;28;40071;-80
2021/08/15 15:52:22;;;;;;;9.20;3.00;;;;;;;;;;5078890;28;37470;-80
2021/08/15 15:54:49;;;;;;;5.00;2.70;;;;;;;;;;5087805;28;39379;-79
2021/08/15 15:57:15;;;;;;;5.43;2.65;;;;;;;;;;5079816;28;38221;-78
2021/08/15 15:59:42;;;;;;;5.60;3.20;;;;;;;;;;5077163;28;37851;-76
2021/08/15 16:02:08;;;;;;;6.22;3.22;;;;;;;;;;5080989;28;36927;-77
2021/08/15 16:04:35;;;;;;;6.95;2.95;;;;;;;;;;5082703;28;39182;-79
2021/08/15 16:07:04;;;;;;;6.75;3.40;;;;;;;;;;5093879;28;39276;-77
2021/08/15 16:09:30;;;;;;;6.55;3.25;;;;;;;;;;5080476;28;39048;-78
2021/08/15 16:11:57;;;;;;;6.93;3.67;;;;;;;;;;5094173;27;37663;-78
2021/08/15 16:14:23;;;;;;;5.80;3.63;;;;;;;;;;5082848;28;39130;-78
2021/08/15 16:16:49;;;;;;;6.05;3.45;;;;;;;;;;5080179;28;38525;-79
2021/08/15 16:19:16;;;;;;;8.60;3.58;;;;;;;;;;5080449;28;39359;-77
2021/08/15 16:21:42;;;;;;;4.60;3.10;;;;;;;;;;5098473;28;39818;-78
2021/08/15 16:24:16;;;;;;;5.40;3.10;;;;;;;;;;5079482;28;38911;-78
2021/08/15 16:26:42;;;;;;;5.45;3.30;;;;;;;;;;5076427;28;39176;-76
2021/08/15 16:29:09;;;;;;;7.50;3.88;;;;;;;;;;5079879;28;41147;-78
2021/08/15 16:31:35;;;;;;;5.72;3.05;;;;;;;;;;5078261;28;36705;-78
2021/08/15 16:34:01;;;;;;;7.72;3.33;;;;;;;;;;5076067;28;39592;-77
2021/08/15 16:36:29;;;;;;;4.13;3.03;;;;;;;;;;5086389;28;47140;-77
2021/08/15 16:38:55;;;;;;;5.65;3.38;;;;;;;;;;5090983;28;37581;-78
2021/08/15 16:41:21;;;;;;;7.93;3.83;;;;;;;;;;5093383;28;37413;-77
2021/08/15 16:43:48;;;;;;;5.95;3.08;;;;;;;;;;5080120;28;39085;-78
2021/08/15 16:46:14;;;;;;;6.20;3.15;;;;;;;;;;5078776;28;37676;-78
2021/08/15 16:48:41;;;;;;;6.47;3.05;;;;;;;;;;5082237;28;39089;-78
2021/08/15 16:51:07;;;;;;;8.00;3.40;;;;;;;;;;5094601;28;35661;-78
2021/08/15 16:53:33;;;;;;;6.25;3.75;;;;;;;;;;5082506;28;41450;-78
2021/08/15 16:56:00;;;;;;;8.77;4.20;;;;;;;;;;5074789;28;40369;-77
2021/08/15 16:58:26;;;;;;;6.40;3.42;;;;;;;;;;5081488;28;39541;-78
2021/08/15 17:00:54;;;;;;;6.43;3.63;;;;;;;;;;5089677;28;36134;-78
2021/08/15 17:03:20;;;;;;;5.22;3.38;;;;;;;;;;5096553;28;39922;-78
2021/08/15 17:05:46;;;;;;;4.95;3.08;;;;;;;;;;5082925;28;37829;-78
2021/08/15 17:11:17;;;;;;;7.38;3.05;;;;;;;;;;5377012;22;38547;-79
2021/08/15 17:13:55;;;;;;;7.05;2.60;;;;;;;;;;5069016;28;37626;-78
2021/08/15 17:16:21;;;;;;;5.55;2.72;;;;;;;;;;5060292;28;38569;-79
2021/08/15 17:18:54;;;;;;;5.85;2.72;;;;;;;;;;5067470;28;39140;-79
2021/08/15 17:21:21;;;;;;;7.22;2.60;;;;;;;;;;5068724;28;37686;-78
2021/08/15 17:23:47;;;;;;;6.20;2.95;;;;;;;;;;5064934;28;37875;-80
2021/08/15 17:26:14;;;;;;;5.15;2.53;;;;;;;;;;5050905;28;38891;-79
2021/08/15 17:28:41;;;;;;;7.65;2.58;;;;;;;;;;5047731;28;39603;-80
2021/08/15 17:31:08;;;;;;;6.47;2.67;;;;;;;;;;5067161;28;37968;-79
2021/08/15 17:33:36;;;;;;;5.88;2.30;;;;;;;;;;5071589;28;38550;-81
2021/08/15 17:38:48;;;;;;;7.22;2.65;;;;;;;;;;5459844;22;20041;-79
2021/08/15 17:41:20;;;;;;;5.18;2.28;;;;;;;;;;5069525;28;38092;-78
2021/08/15 17:43:46;;;;;;;;;;;;;;;;;;5075554;28;39068;-80
2021/08/15 17:46:15;;;;;;;5.88;2.63;;;;;;;;;;5071551;28;40200;-79
2021/08/15 17:48:41;;;;;;;7.28;3.25;;;;;;;;;;5048702;28;38367;-80
2021/08/15 17:51:07;;;;;;;5.55;2.40;;;;;;;;;;5070808;28;38184;-78
2021/08/15 17:53:34;;;;;;;5.40;1.88;;;;;;;;;;5070439;28;38623;-80
2021/08/15 17:56:06;;;;;;;7.07;2.83;;;;;;;;;;5069297;28;38604;-80
2021/08/15 17:58:32;;;;;;;5.00;1.75;;;;;;;;;;5200401;23;48244;-80